sensor_id;sensor_type;location;lat;lon;timestamp;temperature;humidity
26099;DHT22;13860;52.370;6.764;2022-09-17T00:02:35;13.40;73.20
26099;DHT22;13860;52.370;6.764;2022-09-17T00:05:39;13.40;73.30
26099;DHT22;13860;52.370;6.764;2022-09-17T00:08:42;13.40;73.30
26099;DHT22;13860;52.370;6.764;2022-09-17T00:11:46;13.40;73.30
26099;DHT22;13860;52.370;6.764;2022-09-17T00:14:52;13.30;73.20
26099;DHT22;13860;52.370;6.764;2022-09-17T00:17:56;13.30;73.20
26099;DHT22;13860;52.370;6.764;2022-09-17T00:21:00;13.20;73.20
26099;DHT22;13860;52.370;6.764;2022-09-17T00:24:04;13.20;73.30
26099;DHT22;13860;52.370;6.764;2022-09-17T00:27:08;13.10;73.20
26099;DHT22;13860;52.370;6.764;2022-09-17T00:30:14;13.10;73.20
26099;DHT22;13860;52.370;6.764;2022-09-17T00:33:18;13.10;73.30
26099;DHT22;13860;52.370;6.764;2022-09-17T00:36:22;13.00;73.30
26099;DHT22;13860;52.370;6.764;2022-09-17T00:39:26;13.00;73.30
26099;DHT22;13860;52.370;6.764;2022-09-17T00:42:30;13.00;73.40
26099;DHT22;13860;52.370;6.764;2022-09-17T00:45:36;13.00;73.40
26099;DHT22;13860;52.370;6.764;2022-09-17T00:48:41;12.90;73.40
26099;DHT22;13860;52.370;6.764;2022-09-17T00:51:48;12.90;73.30
26099;DHT22;13860;52.370;6.764;2022-09-17T00:55:07;12.90;73.50
26099;DHT22;13860;52.370;6.764;2022-09-17T00:58:14;12.80;73.40
26099;DHT22;13860;52.370;6.764;2022-09-17T01:01:21;12.80;73.40
26099;DHT22;13860;52.370;6.764;2022-09-17T01:04:26;12.80;73.40
26099;DHT22;13860;52.370;6.764;2022-09-17T01:07:52;12.80;73.40
26099;DHT22;13860;52.370;6.764;2022-09-17T01:11:19;12.80;73.60
26099;DHT22;13860;52.370;6.764;2022-09-17T01:14:36;12.70;73.50
26099;DHT22;13860;52.370;6.764;2022-09-17T01:17:50;12.70;73.50
26099;DHT22;13860;52.370;6.764;2022-09-17T01:21:26;12.70;73.50
26099;DHT22;13860;52.370;6.764;2022-09-17T01:24:54;12.70;73.50
26099;DHT22;13860;52.370;6.764;2022-09-17T01:31:39;12.60;73.60
26099;DHT22;13860;52.370;6.764;2022-09-17T01:34:51;12.60;73.50
26099;DHT22;13860;52.370;6.764;2022-09-17T01:38:01;12.60;73.60
26099;DHT22;13860;52.370;6.764;2022-09-17T01:41:11;12.60;73.60
26099;DHT22;13860;52.370;6.764;2022-09-17T01:44:22;12.60;73.70
26099;DHT22;13860;52.370;6.764;2022-09-17T01:47:33;12.50;73.60
26099;DHT22;13860;52.370;6.764;2022-09-17T01:50:41;12.50;73.60
26099;DHT22;13860;52.370;6.764;2022-09-17T01:53:50;12.50;73.60
26099;DHT22;13860;52.370;6.764;2022-09-17T01:56:58;12.50;73.60
26099;DHT22;13860;52.370;6.764;2022-09-17T02:00:06;12.50;73.60
26099;DHT22;13860;52.370;6.764;2022-09-17T02:03:19;12.50;73.60
26099;DHT22;13860;52.370;6.764;2022-09-17T02:06:26;12.40;73.70
26099;DHT22;13860;52.370;6.764;2022-09-17T02:09:37;12.40;73.60
26099;DHT22;13860;52.370;6.764;2022-09-17T02:12:45;12.40;73.70
26099;DHT22;13860;52.370;6.764;2022-09-17T02:15:56;12.40;73.70
26099;DHT22;13860;52.370;6.764;2022-09-17T02:19:05;12.40;73.70
26099;DHT22;13860;52.370;6.764;2022-09-17T02:22:17;12.40;73.80
26099;DHT22;13860;52.370;6.764;2022-09-17T02:25:25;12.40;73.80
26099;DHT22;13860;52.370;6.764;2022-09-17T02:28:39;12.30;73.70
26099;DHT22;13860;52.370;6.764;2022-09-17T02:31:44;12.30;73.80
26099;DHT22;13860;52.370;6.764;2022-09-17T02:34:49;12.30;73.70
26099;DHT22;13860;52.370;6.764;2022-09-17T02:37:53;12.30;73.70
26099;DHT22;13860;52.370;6.764;2022-09-17T02:41:04;12.30;73.80
26099;DHT22;13860;52.370;6.764;2022-09-17T02:44:17;12.30;73.90
26099;DHT22;13860;52.370;6.764;2022-09-17T02:47:37;12.30;73.90
26099;DHT22;13860;52.370;6.764;2022-09-17T02:51:03;12.20;73.80
26099;DHT22;13860;52.370;6.764;2022-09-17T02:54:15;12.20;73.90
26099;DHT22;13860;52.370;6.764;2022-09-17T02:57:23;12.20;73.80
26099;DHT22;13860;52.370;6.764;2022-09-17T03:00:30;12.20;73.90
26099;DHT22;13860;52.370;6.764;2022-09-17T03:03:37;12.20;73.90
26099;DHT22;13860;52.370;6.764;2022-09-17T03:06:44;12.20;73.90
26099;DHT22;13860;52.370;6.764;2022-09-17T03:09:49;12.20;73.90
26099;DHT22;13860;52.370;6.764;2022-09-17T03:12:53;12.10;73.80
26099;DHT22;13860;52.370;6.764;2022-09-17T03:15:57;12.20;73.90
26099;DHT22;13860;52.370;6.764;2022-09-17T03:19:00;12.20;73.90
26099;DHT22;13860;52.370;6.764;2022-09-17T03:22:06;12.20;73.90
26099;DHT22;13860;52.370;6.764;2022-09-17T03:25:10;12.10;73.80
26099;DHT22;13860;52.370;6.764;2022-09-17T03:28:14;12.10;74.00
26099;DHT22;13860;52.370;6.764;2022-09-17T03:31:18;12.10;73.90
26099;DHT22;13860;52.370;6.764;2022-09-17T03:34:22;12.10;73.90
26099;DHT22;13860;52.370;6.764;2022-09-17T03:37:27;12.10;73.90
26099;DHT22;13860;52.370;6.764;2022-09-17T03:40:34;12.10;73.80
26099;DHT22;13860;52.370;6.764;2022-09-17T03:43:38;12.10;73.70
26099;DHT22;13860;52.370;6.764;2022-09-17T03:46:42;12.00;73.70
26099;DHT22;13860;52.370;6.764;2022-09-17T03:49:45;12.00;73.70
26099;DHT22;13860;52.370;6.764;2022-09-17T03:52:51;12.00;73.80
26099;DHT22;13860;52.370;6.764;2022-09-17T03:55:57;12.00;73.80
26099;DHT22;13860;52.370;6.764;2022-09-17T03:59:01;12.00;73.80
26099;DHT22;13860;52.370;6.764;2022-09-17T04:02:05;12.00;73.90
26099;DHT22;13860;52.370;6.764;2022-09-17T04:05:08;11.90;73.80
26099;DHT22;13860;52.370;6.764;2022-09-17T04:08:14;11.90;73.80
26099;DHT22;13860;52.370;6.764;2022-09-17T04:11:18;11.90;73.80
26099;DHT22;13860;52.370;6.764;2022-09-17T04:14:22;11.90;73.80
26099;DHT22;13860;52.370;6.764;2022-09-17T04:17:26;11.90;73.80
26099;DHT22;13860;52.370;6.764;2022-09-17T04:20:30;11.90;73.90
26099;DHT22;13860;52.370;6.764;2022-09-17T04:23:36;11.90;73.90
26099;DHT22;13860;52.370;6.764;2022-09-17T04:26:39;11.90;73.90
26099;DHT22;13860;52.370;6.764;2022-09-17T04:29:43;11.90;73.90
26099;DHT22;13860;52.370;6.764;2022-09-17T04:32:47;11.80;73.90
26099;DHT22;13860;52.370;6.764;2022-09-17T04:35:50;11.80;73.90
26099;DHT22;13860;52.370;6.764;2022-09-17T04:38:56;11.80;73.90
26099;DHT22;13860;52.370;6.764;2022-09-17T04:42:00;11.80;74.00
26099;DHT22;13860;52.370;6.764;2022-09-17T04:45:04;11.80;74.00
26099;DHT22;13860;52.370;6.764;2022-09-17T04:48:08;11.80;74.00
26099;DHT22;13860;52.370;6.764;2022-09-17T04:51:11;11.80;74.00
26099;DHT22;13860;52.370;6.764;2022-09-17T04:54:17;11.80;74.10
26099;DHT22;13860;52.370;6.764;2022-09-17T04:57:21;11.80;74.00
26099;DHT22;13860;52.370;6.764;2022-09-17T05:00:25;11.80;74.00
26099;DHT22;13860;52.370;6.764;2022-09-17T05:03:29;11.80;74.10
26099;DHT22;13860;52.370;6.764;2022-09-17T05:06:33;11.80;74.00
26099;DHT22;13860;52.370;6.764;2022-09-17T05:09:38;11.80;74.00
26099;DHT22;13860;52.370;6.764;2022-09-17T05:12:46;11.80;74.10
26099;DHT22;13860;52.370;6.764;2022-09-17T05:15:52;11.80;74.10
26099;DHT22;13860;52.370;6.764;2022-09-17T05:18:56;11.80;74.10
26099;DHT22;13860;52.370;6.764;2022-09-17T05:22:00;11.80;74.10
26099;DHT22;13860;52.370;6.764;2022-09-17T05:25:07;11.70;74.10
26099;DHT22;13860;52.370;6.764;2022-09-17T05:28:10;11.70;74.10
26099;DHT22;13860;52.370;6.764;2022-09-17T05:31:14;11.70;74.10
26099;DHT22;13860;52.370;6.764;2022-09-17T05:34:18;11.70;74.10
26099;DHT22;13860;52.370;6.764;2022-09-17T05:37:21;11.70;74.10
26099;DHT22;13860;52.370;6.764;2022-09-17T05:40:27;11.70;74.10
26099;DHT22;13860;52.370;6.764;2022-09-17T05:43:31;11.70;74.20
26099;DHT22;13860;52.370;6.764;2022-09-17T05:46:35;11.70;74.10
26099;DHT22;13860;52.370;6.764;2022-09-17T05:49:39;11.70;74.10
26099;DHT22;13860;52.370;6.764;2022-09-17T05:52:42;11.70;74.20
26099;DHT22;13860;52.370;6.764;2022-09-17T05:55:48;11.70;74.20
26099;DHT22;13860;52.370;6.764;2022-09-17T05:58:54;11.60;74.20
26099;DHT22;13860;52.370;6.764;2022-09-17T06:01:58;11.70;74.30
26099;DHT22;13860;52.370;6.764;2022-09-17T06:05:02;11.70;74.40
26099;DHT22;13860;52.370;6.764;2022-09-17T06:08:06;11.70;74.30
26099;DHT22;13860;52.370;6.764;2022-09-17T06:11:11;11.70;74.30
26099;DHT22;13860;52.370;6.764;2022-09-17T06:14:15;11.70;74.30
26099;DHT22;13860;52.370;6.764;2022-09-17T06:17:19;11.70;74.30
26099;DHT22;13860;52.370;6.764;2022-09-17T06:20:23;11.70;74.30
26099;DHT22;13860;52.370;6.764;2022-09-17T06:23:30;11.70;74.30
26099;DHT22;13860;52.370;6.764;2022-09-17T06:26:37;11.70;74.90
26099;DHT22;13860;52.370;6.764;2022-09-17T06:29:41;11.80;74.40
26099;DHT22;13860;52.370;6.764;2022-09-17T06:32:44;11.80;74.40
26099;DHT22;13860;52.370;6.764;2022-09-17T06:35:48;11.80;74.40
26099;DHT22;13860;52.370;6.764;2022-09-17T06:39:00;11.80;74.40
26099;DHT22;13860;52.370;6.764;2022-09-17T06:42:06;11.80;74.40
26099;DHT22;13860;52.370;6.764;2022-09-17T06:45:10;11.90;74.50
26099;DHT22;13860;52.370;6.764;2022-09-17T06:48:17;11.90;74.40
26099;DHT22;13860;52.370;6.764;2022-09-17T06:51:21;12.00;74.50
26099;DHT22;13860;52.370;6.764;2022-09-17T06:54:25;12.00;74.40
26099;DHT22;13860;52.370;6.764;2022-09-17T06:57:30;12.00;74.40
26099;DHT22;13860;52.370;6.764;2022-09-17T07:00:34;12.10;74.50
26099;DHT22;13860;52.370;6.764;2022-09-17T07:03:38;12.10;74.40
26099;DHT22;13860;52.370;6.764;2022-09-17T07:06:43;12.10;74.30
26099;DHT22;13860;52.370;6.764;2022-09-17T07:09:47;12.20;74.20
26099;DHT22;13860;52.370;6.764;2022-09-17T07:12:52;12.20;74.20
26099;DHT22;13860;52.370;6.764;2022-09-17T07:15:57;12.20;74.20
26099;DHT22;13860;52.370;6.764;2022-09-17T07:19:02;12.30;74.30
26099;DHT22;13860;52.370;6.764;2022-09-17T07:22:06;12.30;74.30
26099;DHT22;13860;52.370;6.764;2022-09-17T07:25:10;12.30;74.30
26099;DHT22;13860;52.370;6.764;2022-09-17T07:28:15;12.40;74.30
26099;DHT22;13860;52.370;6.764;2022-09-17T07:31:19;12.50;74.40
26099;DHT22;13860;52.370;6.764;2022-09-17T07:34:24;12.60;74.40
26099;DHT22;13860;52.370;6.764;2022-09-17T07:37:28;12.70;74.30
26099;DHT22;13860;52.370;6.764;2022-09-17T07:40:32;12.70;74.20
26099;DHT22;13860;52.370;6.764;2022-09-17T07:43:38;12.80;74.30
26099;DHT22;13860;52.370;6.764;2022-09-17T07:46:42;12.80;74.20
26099;DHT22;13860;52.370;6.764;2022-09-17T07:49:46;13.00;74.20
26099;DHT22;13860;52.370;6.764;2022-09-17T07:52:49;13.00;74.10
26099;DHT22;13860;52.370;6.764;2022-09-17T07:55:54;13.10;74.10
26099;DHT22;13860;52.370;6.764;2022-09-17T07:59:01;13.20;74.10
26099;DHT22;13860;52.370;6.764;2022-09-17T08:02:10;13.40;74.10
26099;DHT22;13860;52.370;6.764;2022-09-17T08:05:15;13.50;74.00
26099;DHT22;13860;52.370;6.764;2022-09-17T08:08:19;13.60;73.80
26099;DHT22;13860;52.370;6.764;2022-09-17T08:11:26;13.70;73.70
26099;DHT22;13860;52.370;6.764;2022-09-17T08:14:52;13.80;73.60
26099;DHT22;13860;52.370;6.764;2022-09-17T08:17:55;14.00;73.50
26099;DHT22;13860;52.370;6.764;2022-09-17T08:21:01;14.10;73.40
26099;DHT22;13860;52.370;6.764;2022-09-17T08:24:05;14.30;73.30
26099;DHT22;13860;52.370;6.764;2022-09-17T08:27:09;14.50;73.20
26099;DHT22;13860;52.370;6.764;2022-09-17T08:30:14;14.70;73.10
26099;DHT22;13860;52.370;6.764;2022-09-17T08:33:18;14.90;72.90
26099;DHT22;13860;52.370;6.764;2022-09-17T08:36:22;15.10;72.70
26099;DHT22;13860;52.370;6.764;2022-09-17T08:39:26;15.30;72.50
26099;DHT22;13860;52.370;6.764;2022-09-17T08:42:34;15.50;72.30
26099;DHT22;13860;52.370;6.764;2022-09-17T08:45:41;15.60;72.10
26099;DHT22;13860;52.370;6.764;2022-09-17T08:48:50;15.80;71.80
26099;DHT22;13860;52.370;6.764;2022-09-17T08:55:34;16.20;71.10
26099;DHT22;13860;52.370;6.764;2022-09-17T08:58:56;16.30;71.00
26099;DHT22;13860;52.370;6.764;2022-09-17T09:02:13;16.50;70.40
26099;DHT22;13860;52.370;6.764;2022-09-17T09:05:21;16.50;70.10
26099;DHT22;13860;52.370;6.764;2022-09-17T09:08:29;16.60;70.10
26099;DHT22;13860;52.370;6.764;2022-09-17T09:11:34;16.70;69.90
26099;DHT22;13860;52.370;6.764;2022-09-17T09:14:44;16.70;69.80
26099;DHT22;13860;52.370;6.764;2022-09-17T09:17:52;16.80;69.60
26099;DHT22;13860;52.370;6.764;2022-09-17T09:21:04;16.80;69.40
26099;DHT22;13860;52.370;6.764;2022-09-17T09:24:19;16.90;69.20
26099;DHT22;13860;52.370;6.764;2022-09-17T09:27:27;16.90;69.00
26099;DHT22;13860;52.370;6.764;2022-09-17T09:30:41;17.00;69.10
26099;DHT22;13860;52.370;6.764;2022-09-17T09:33:50;17.00;69.00
26099;DHT22;13860;52.370;6.764;2022-09-17T09:36:58;17.20;69.00
26099;DHT22;13860;52.370;6.764;2022-09-17T09:40:18;17.20;68.80
26099;DHT22;13860;52.370;6.764;2022-09-17T09:43:31;17.30;68.50
26099;DHT22;13860;52.370;6.764;2022-09-17T09:47:08;17.30;68.50
26099;DHT22;13860;52.370;6.764;2022-09-17T09:50:40;17.40;68.30
26099;DHT22;13860;52.370;6.764;2022-09-17T09:54:22;17.50;68.10
26099;DHT22;13860;52.370;6.764;2022-09-17T09:57:35;17.60;68.00
26099;DHT22;13860;52.370;6.764;2022-09-17T10:00:41;17.70;68.00
26099;DHT22;13860;52.370;6.764;2022-09-17T10:03:47;17.80;67.80
26099;DHT22;13860;52.370;6.764;2022-09-17T10:06:59;17.90;67.70
26099;DHT22;13860;52.370;6.764;2022-09-17T10:10:08;17.80;67.40
26099;DHT22;13860;52.370;6.764;2022-09-17T10:13:12;17.90;67.50
26099;DHT22;13860;52.370;6.764;2022-09-17T10:16:19;17.80;67.40
26099;DHT22;13860;52.370;6.764;2022-09-17T10:19:25;17.70;67.20
26099;DHT22;13860;52.370;6.764;2022-09-17T10:22:32;17.70;67.30
26099;DHT22;13860;52.370;6.764;2022-09-17T10:25:41;17.60;67.30
26099;DHT22;13860;52.370;6.764;2022-09-17T10:28:48;17.50;67.30
26099;DHT22;13860;52.370;6.764;2022-09-17T10:31:54;17.40;67.40
26099;DHT22;13860;52.370;6.764;2022-09-17T10:35:00;17.30;67.50
26099;DHT22;13860;52.370;6.764;2022-09-17T10:38:26;17.30;67.60
26099;DHT22;13860;52.370;6.764;2022-09-17T10:41:30;17.30;67.40
26099;DHT22;13860;52.370;6.764;2022-09-17T10:44:35;17.40;67.70
26099;DHT22;13860;52.370;6.764;2022-09-17T10:47:41;17.40;67.60
26099;DHT22;13860;52.370;6.764;2022-09-17T10:50:47;17.60;67.50
26099;DHT22;13860;52.370;6.764;2022-09-17T10:58:00;17.90;66.90
26099;DHT22;13860;52.370;6.764;2022-09-17T11:01:09;18.10;66.90
26099;DHT22;13860;52.370;6.764;2022-09-17T11:04:26;18.20;66.90
26099;DHT22;13860;52.370;6.764;2022-09-17T11:07:38;18.40;66.60
26099;DHT22;13860;52.370;6.764;2022-09-17T11:10:52;18.60;66.40
26099;DHT22;13860;52.370;6.764;2022-09-17T11:14:05;18.80;66.10
26099;DHT22;13860;52.370;6.764;2022-09-17T11:17:25;18.90;65.80
26099;DHT22;13860;52.370;6.764;2022-09-17T11:20:45;19.00;65.40
26099;DHT22;13860;52.370;6.764;2022-09-17T11:27:47;19.00;65.30
26099;DHT22;13860;52.370;6.764;2022-09-17T11:31:09;18.90;65.40
26099;DHT22;13860;52.370;6.764;2022-09-17T11:34:29;18.70;65.60
26099;DHT22;13860;52.370;6.764;2022-09-17T11:37:39;18.60;65.80
26099;DHT22;13860;52.370;6.764;2022-09-17T11:40:54;18.40;65.90
26099;DHT22;13860;52.370;6.764;2022-09-17T11:44:06;18.10;66.10
26099;DHT22;13860;52.370;6.764;2022-09-17T11:47:16;18.00;66.40
26099;DHT22;13860;52.370;6.764;2022-09-17T11:50:25;17.80;66.70
26099;DHT22;13860;52.370;6.764;2022-09-17T11:53:33;17.60;67.00
26099;DHT22;13860;52.370;6.764;2022-09-17T11:56:41;17.50;67.40
26099;DHT22;13860;52.370;6.764;2022-09-17T11:59:50;17.40;67.70
26099;DHT22;13860;52.370;6.764;2022-09-17T12:02:59;17.40;68.00
26099;DHT22;13860;52.370;6.764;2022-09-17T12:06:08;17.40;68.30
26099;DHT22;13860;52.370;6.764;2022-09-17T12:09:17;17.40;68.40
26099;DHT22;13860;52.370;6.764;2022-09-17T12:12:23;17.40;68.40
26099;DHT22;13860;52.370;6.764;2022-09-17T12:15:50;17.50;68.50
26099;DHT22;13860;52.370;6.764;2022-09-17T12:19:03;17.50;68.50
26099;DHT22;13860;52.370;6.764;2022-09-17T12:22:11;17.50;68.50
26099;DHT22;13860;52.370;6.764;2022-09-17T12:25:16;17.50;68.50
26099;DHT22;13860;52.370;6.764;2022-09-17T12:28:22;17.60;68.30
26099;DHT22;13860;52.370;6.764;2022-09-17T12:31:33;17.60;68.30
26099;DHT22;13860;52.370;6.764;2022-09-17T12:34:52;17.60;68.30
26099;DHT22;13860;52.370;6.764;2022-09-17T12:38:07;17.60;68.10
26099;DHT22;13860;52.370;6.764;2022-09-17T12:41:17;17.70;68.00
26099;DHT22;13860;52.370;6.764;2022-09-17T12:44:47;17.70;67.80
26099;DHT22;13860;52.370;6.764;2022-09-17T12:48:13;17.70;67.50
26099;DHT22;13860;52.370;6.764;2022-09-17T12:55:05;17.60;67.10
26099;DHT22;13860;52.370;6.764;2022-09-17T12:58:24;17.50;67.10
26099;DHT22;13860;52.370;6.764;2022-09-17T13:01:34;17.50;66.90
26099;DHT22;13860;52.370;6.764;2022-09-17T13:08:43;17.40;66.70
26099;DHT22;13860;52.370;6.764;2022-09-17T13:12:02;17.40;67.50
26099;DHT22;13860;52.370;6.764;2022-09-17T13:15:34;17.30;66.80
26099;DHT22;13860;52.370;6.764;2022-09-17T13:18:49;17.20;66.60
26099;DHT22;13860;52.370;6.764;2022-09-17T13:22:17;17.20;66.70
26099;DHT22;13860;52.370;6.764;2022-09-17T13:25:24;17.10;66.80
26099;DHT22;13860;52.370;6.764;2022-09-17T13:28:39;17.10;66.70
26099;DHT22;13860;52.370;6.764;2022-09-17T13:31:48;17.10;66.70
26099;DHT22;13860;52.370;6.764;2022-09-17T13:34:52;17.10;66.70
26099;DHT22;13860;52.370;6.764;2022-09-17T13:37:57;17.00;66.70
26099;DHT22;13860;52.370;6.764;2022-09-17T13:41:20;17.10;66.80
26099;DHT22;13860;52.370;6.764;2022-09-17T13:44:25;17.10;66.60
26099;DHT22;13860;52.370;6.764;2022-09-17T13:47:30;17.10;66.60
26099;DHT22;13860;52.370;6.764;2022-09-17T13:50:36;17.10;66.60
26099;DHT22;13860;52.370;6.764;2022-09-17T13:53:51;17.10;66.50
26099;DHT22;13860;52.370;6.764;2022-09-17T13:57:19;17.20;66.40
26099;DHT22;13860;52.370;6.764;2022-09-17T14:00:48;17.20;66.40
26099;DHT22;13860;52.370;6.764;2022-09-17T14:03:53;17.20;66.40
26099;DHT22;13860;52.370;6.764;2022-09-17T14:06:58;17.30;66.50
26099;DHT22;13860;52.370;6.764;2022-09-17T14:10:32;17.30;66.50
26099;DHT22;13860;52.370;6.764;2022-09-17T14:13:43;17.30;66.60
26099;DHT22;13860;52.370;6.764;2022-09-17T14:16:48;17.30;66.60
26099;DHT22;13860;52.370;6.764;2022-09-17T14:19:52;17.30;66.70
26099;DHT22;13860;52.370;6.764;2022-09-17T14:22:57;17.20;66.80
26099;DHT22;13860;52.370;6.764;2022-09-17T14:26:03;17.10;66.90
26099;DHT22;13860;52.370;6.764;2022-09-17T14:29:17;17.10;66.90
26099;DHT22;13860;52.370;6.764;2022-09-17T14:32:26;17.00;66.70
26099;DHT22;13860;52.370;6.764;2022-09-17T14:35:36;17.00;66.60
26099;DHT22;13860;52.370;6.764;2022-09-17T14:38:42;16.80;66.50
26099;DHT22;13860;52.370;6.764;2022-09-17T14:41:48;16.70;66.40
26099;DHT22;13860;52.370;6.764;2022-09-17T14:44:58;16.60;66.40
26099;DHT22;13860;52.370;6.764;2022-09-17T14:48:31;16.50;66.30
26099;DHT22;13860;52.370;6.764;2022-09-17T14:51:38;16.50;66.30
26099;DHT22;13860;52.370;6.764;2022-09-17T14:54:42;16.40;66.40
26099;DHT22;13860;52.370;6.764;2022-09-17T14:57:48;16.30;66.40
26099;DHT22;13860;52.370;6.764;2022-09-17T15:00:56;16.30;66.40
26099;DHT22;13860;52.370;6.764;2022-09-17T15:04:27;16.30;66.50
26099;DHT22;13860;52.370;6.764;2022-09-17T15:07:30;16.20;66.40
26099;DHT22;13860;52.370;6.764;2022-09-17T15:10:35;16.20;66.50
26099;DHT22;13860;52.370;6.764;2022-09-17T15:13:48;16.20;66.60
26099;DHT22;13860;52.370;6.764;2022-09-17T15:16:56;16.20;66.60
26099;DHT22;13860;52.370;6.764;2022-09-17T15:20:02;16.20;66.60
26099;DHT22;13860;52.370;6.764;2022-09-17T15:23:13;16.20;66.50
26099;DHT22;13860;52.370;6.764;2022-09-17T15:26:22;16.20;66.50
26099;DHT22;13860;52.370;6.764;2022-09-17T15:29:29;16.20;66.50
26099;DHT22;13860;52.370;6.764;2022-09-17T15:32:39;16.20;66.40
26099;DHT22;13860;52.370;6.764;2022-09-17T15:35:58;16.20;66.30
26099;DHT22;13860;52.370;6.764;2022-09-17T15:39:28;16.20;66.40
26099;DHT22;13860;52.370;6.764;2022-09-17T15:42:32;16.10;66.40
26099;DHT22;13860;52.370;6.764;2022-09-17T15:45:36;16.10;66.50
26099;DHT22;13860;52.370;6.764;2022-09-17T15:48:44;16.00;66.40
26099;DHT22;13860;52.370;6.764;2022-09-17T15:51:48;16.00;66.40
26099;DHT22;13860;52.370;6.764;2022-09-17T15:54:53;15.90;66.40
26099;DHT22;13860;52.370;6.764;2022-09-17T15:57:57;15.80;66.50
26099;DHT22;13860;52.370;6.764;2022-09-17T16:01:48;15.80;66.40
26099;DHT22;13860;52.370;6.764;2022-09-17T16:08:58;15.50;66.40
26099;DHT22;13860;52.370;6.764;2022-09-17T16:12:03;15.40;66.60
26099;DHT22;13860;52.370;6.764;2022-09-17T16:15:07;15.30;66.60
26099;DHT22;13860;52.370;6.764;2022-09-17T16:18:14;15.30;66.70
26099;DHT22;13860;52.370;6.764;2022-09-17T16:21:18;15.20;66.60
26099;DHT22;13860;52.370;6.764;2022-09-17T16:24:24;15.20;66.70
26099;DHT22;13860;52.370;6.764;2022-09-17T16:27:30;15.20;66.70
26099;DHT22;13860;52.370;6.764;2022-09-17T16:30:35;15.10;66.70
26099;DHT22;13860;52.370;6.764;2022-09-17T16:33:39;15.10;66.70
26099;DHT22;13860;52.370;6.764;2022-09-17T16:36:43;15.10;66.70
26099;DHT22;13860;52.370;6.764;2022-09-17T16:39:49;15.00;66.70
26099;DHT22;13860;52.370;6.764;2022-09-17T16:42:53;15.00;66.80
26099;DHT22;13860;52.370;6.764;2022-09-17T16:45:58;14.90;66.80
26099;DHT22;13860;52.370;6.764;2022-09-17T16:49:01;14.90;66.80
26099;DHT22;13860;52.370;6.764;2022-09-17T16:52:05;14.80;66.90
26099;DHT22;13860;52.370;6.764;2022-09-17T16:55:12;14.80;66.90
26099;DHT22;13860;52.370;6.764;2022-09-17T16:58:16;14.80;67.00
26099;DHT22;13860;52.370;6.764;2022-09-17T17:01:19;14.70;67.00
26099;DHT22;13860;52.370;6.764;2022-09-17T17:04:23;14.70;67.10
26099;DHT22;13860;52.370;6.764;2022-09-17T17:07:27;14.70;67.10
26099;DHT22;13860;52.370;6.764;2022-09-17T17:10:35;14.70;67.20
26099;DHT22;13860;52.370;6.764;2022-09-17T17:13:41;14.60;67.20
26099;DHT22;13860;52.370;6.764;2022-09-17T17:16:45;14.60;67.30
26099;DHT22;13860;52.370;6.764;2022-09-17T17:19:48;14.60;67.50
26099;DHT22;13860;52.370;6.764;2022-09-17T17:22:54;14.60;67.60
26099;DHT22;13860;52.370;6.764;2022-09-17T17:25:59;14.50;67.60
26099;DHT22;13860;52.370;6.764;2022-09-17T17:29:04;14.50;67.70
26099;DHT22;13860;52.370;6.764;2022-09-17T17:32:08;14.50;67.70
26099;DHT22;13860;52.370;6.764;2022-09-17T17:35:12;14.50;67.90
26099;DHT22;13860;52.370;6.764;2022-09-17T17:38:16;14.50;67.90
26099;DHT22;13860;52.370;6.764;2022-09-17T17:41:22;14.50;68.00
26099;DHT22;13860;52.370;6.764;2022-09-17T17:44:27;14.40;68.00
26099;DHT22;13860;52.370;6.764;2022-09-17T17:47:31;14.40;68.10
26099;DHT22;13860;52.370;6.764;2022-09-17T17:50:34;14.40;68.10
26099;DHT22;13860;52.370;6.764;2022-09-17T17:53:41;14.40;68.20
26099;DHT22;13860;52.370;6.764;2022-09-17T17:56:47;14.40;68.30
26099;DHT22;13860;52.370;6.764;2022-09-17T17:59:50;14.30;68.40
26099;DHT22;13860;52.370;6.764;2022-09-17T18:02:54;14.30;68.30
26099;DHT22;13860;52.370;6.764;2022-09-17T18:05:58;14.30;68.40
26099;DHT22;13860;52.370;6.764;2022-09-17T18:09:02;14.30;68.40
26099;DHT22;13860;52.370;6.764;2022-09-17T18:12:08;14.20;68.30
26099;DHT22;13860;52.370;6.764;2022-09-17T18:15:12;14.20;68.40
26099;DHT22;13860;52.370;6.764;2022-09-17T18:18:15;14.20;68.40
26099;DHT22;13860;52.370;6.764;2022-09-17T18:21:21;14.10;68.40
26099;DHT22;13860;52.370;6.764;2022-09-17T18:24:24;14.10;68.50
26099;DHT22;13860;52.370;6.764;2022-09-17T18:27:30;14.10;68.50
26099;DHT22;13860;52.370;6.764;2022-09-17T18:30:35;14.00;68.60
26099;DHT22;13860;52.370;6.764;2022-09-17T18:33:39;14.00;68.60
26099;DHT22;13860;52.370;6.764;2022-09-17T18:36:43;14.00;68.60
26099;DHT22;13860;52.370;6.764;2022-09-17T18:39:52;13.90;69.20
26099;DHT22;13860;52.370;6.764;2022-09-17T18:43:02;13.90;68.60
26099;DHT22;13860;52.370;6.764;2022-09-17T18:46:06;13.90;68.70
26099;DHT22;13860;52.370;6.764;2022-09-17T18:49:09;13.80;68.80
26099;DHT22;13860;52.370;6.764;2022-09-17T18:52:13;13.80;68.80
26099;DHT22;13860;52.370;6.764;2022-09-17T18:55:17;13.80;68.90
26099;DHT22;13860;52.370;6.764;2022-09-17T18:58:22;13.70;68.90
26099;DHT22;13860;52.370;6.764;2022-09-17T19:01:29;13.70;69.00
26099;DHT22;13860;52.370;6.764;2022-09-17T19:04:33;13.80;69.10
26099;DHT22;13860;52.370;6.764;2022-09-17T19:07:36;13.70;69.10
26099;DHT22;13860;52.370;6.764;2022-09-17T19:10:40;13.70;69.10
26099;DHT22;13860;52.370;6.764;2022-09-17T19:13:46;13.70;69.10
26099;DHT22;13860;52.370;6.764;2022-09-17T19:16:51;13.70;69.20
26099;DHT22;13860;52.370;6.764;2022-09-17T19:19:55;13.60;69.20
26099;DHT22;13860;52.370;6.764;2022-09-17T19:22:59;13.60;69.30
26099;DHT22;13860;52.370;6.764;2022-09-17T19:26:06;13.60;69.30
26099;DHT22;13860;52.370;6.764;2022-09-17T19:29:11;13.60;69.40
26099;DHT22;13860;52.370;6.764;2022-09-17T19:32:15;13.60;69.50
26099;DHT22;13860;52.370;6.764;2022-09-17T19:35:19;13.50;69.40
26099;DHT22;13860;52.370;6.764;2022-09-17T19:38:24;13.50;69.50
26099;DHT22;13860;52.370;6.764;2022-09-17T19:41:28;13.50;69.50
26099;DHT22;13860;52.370;6.764;2022-09-17T19:44:35;13.50;69.60
26099;DHT22;13860;52.370;6.764;2022-09-17T19:47:39;13.40;69.60
26099;DHT22;13860;52.370;6.764;2022-09-17T19:50:49;13.40;69.60
26099;DHT22;13860;52.370;6.764;2022-09-17T19:53:53;13.40;69.80
26099;DHT22;13860;52.370;6.764;2022-09-17T19:56:56;13.40;69.80
26099;DHT22;13860;52.370;6.764;2022-09-17T20:00:03;13.40;69.80
26099;DHT22;13860;52.370;6.764;2022-09-17T20:03:11;13.40;69.90
26099;DHT22;13860;52.370;6.764;2022-09-17T20:06:17;13.40;69.90
26099;DHT22;13860;52.370;6.764;2022-09-17T20:09:21;13.30;70.00
26099;DHT22;13860;52.370;6.764;2022-09-17T20:12:24;13.30;70.00
26099;DHT22;13860;52.370;6.764;2022-09-17T20:15:33;13.30;70.00